createdAt,value
2022-12-22T00:00:24.000Z,281.65
2022-12-22T00:01:51.000Z,281.52
2022-12-22T00:03:57.000Z,281.65
2022-12-22T00:05:24.000Z,281.65
2022-12-22T00:07:30.000Z,281.59
2022-12-22T00:08:56.000Z,281.65
2022-12-22T00:11:09.000Z,281.71
2022-12-22T00:12:36.000Z,281.71
2022-12-22T00:14:42.000Z,281.71
2022-12-22T00:17:33.000Z,281.65
2022-12-22T00:19:00.000Z,281.77
2022-12-22T00:21:06.000Z,281.71
2022-12-22T00:22:32.000Z,281.65
2022-12-22T00:24:38.000Z,281.65
2022-12-22T00:26:05.000Z,281.65
2022-12-22T00:28:11.000Z,281.65
2022-12-22T00:29:37.000Z,281.71
2022-12-22T00:31:43.000Z,281.71
2022-12-22T00:33:10.000Z,281.71
2022-12-22T00:35:16.000Z,281.71
2022-12-22T00:36:43.000Z,281.71
2022-12-22T00:38:49.000Z,281.71
2022-12-22T00:40:15.000Z,281.71
2022-12-22T00:42:21.000Z,281.77
2022-12-22T00:43:48.000Z,281.77
2022-12-22T00:45:54.000Z,281.71
2022-12-22T00:47:20.000Z,281.77
2022-12-22T00:49:27.000Z,281.77
2022-12-22T00:50:53.000Z,281.77
2022-12-22T00:52:59.000Z,281.71
2022-12-22T00:55:50.000Z,281.71
2022-12-22T00:57:17.000Z,281.71
2022-12-22T00:59:23.000Z,281.71
2022-12-22T01:00:49.000Z,281.71
2022-12-22T01:02:55.000Z,281.71
2022-12-22T01:04:22.000Z,281.71
2022-12-22T01:06:28.000Z,281.77
2022-12-22T01:07:54.000Z,281.77
2022-12-22T01:10:01.000Z,281.77
2022-12-22T01:11:27.000Z,281.77
2022-12-22T01:13:33.000Z,281.77
2022-12-22T01:15:00.000Z,281.77
2022-12-22T01:17:06.000Z,281.77
2022-12-22T01:18:32.000Z,281.71
2022-12-22T01:20:39.000Z,281.65
2022-12-22T01:22:05.000Z,281.65
2022-12-22T01:24:11.000Z,281.71
2022-12-22T01:25:38.000Z,281.84
2022-12-22T01:27:44.000Z,281.71
2022-12-22T01:29:11.000Z,281.77
2022-12-22T01:31:17.000Z,281.77
2022-12-22T01:34:08.000Z,281.71
2022-12-22T01:35:34.000Z,281.71
2022-12-22T01:37:40.000Z,281.71
2022-12-22T01:39:07.000Z,281.77
2022-12-22T01:41:13.000Z,281.71
2022-12-22T01:42:40.000Z,281.65
2022-12-22T01:44:46.000Z,281.59
2022-12-22T01:46:12.000Z,281.65
2022-12-22T01:48:19.000Z,281.65
2022-12-22T01:49:45.000Z,281.59
2022-12-22T01:51:51.000Z,281.59
2022-12-22T01:53:18.000Z,281.59
2022-12-22T01:55:24.000Z,281.52
2022-12-22T01:56:50.000Z,281.46
2022-12-22T01:58:57.000Z,281.59
2022-12-22T02:00:23.000Z,281.59
2022-12-22T02:02:29.000Z,281.52
2022-12-22T02:03:56.000Z,281.52
2022-12-22T02:06:02.000Z,281.46
2022-12-22T02:07:29.000Z,281.59
2022-12-22T02:09:35.000Z,281.59
2022-12-22T02:12:26.000Z,281.52
2022-12-22T02:13:52.000Z,281.52
2022-12-22T02:15:58.000Z,281.52
2022-12-22T02:17:25.000Z,281.59
2022-12-22T02:19:31.000Z,281.59
2022-12-22T02:20:58.000Z,281.65
2022-12-22T02:23:04.000Z,281.65
2022-12-22T02:24:31.000Z,281.71
2022-12-22T02:26:37.000Z,281.59
2022-12-22T02:28:03.000Z,281.65
2022-12-22T02:30:09.000Z,281.65
2022-12-22T02:31:36.000Z,281.65
2022-12-22T02:33:43.000Z,281.52
2022-12-22T02:35:10.000Z,281.52
2022-12-22T02:37:16.000Z,281.59
2022-12-22T02:38:42.000Z,281.52
2022-12-22T02:40:48.000Z,281.46
2022-12-22T02:42:15.000Z,281.52
2022-12-22T02:44:21.000Z,281.52
2022-12-22T02:45:47.000Z,281.46
2022-12-22T02:47:53.000Z,281.46
2022-12-22T02:50:45.000Z,281.46
2022-12-22T02:52:11.000Z,281.4
2022-12-22T02:54:17.000Z,281.46
2022-12-22T02:55:44.000Z,281.46
2022-12-22T02:57:50.000Z,281.46
2022-12-22T02:59:17.000Z,281.46
2022-12-22T03:01:23.000Z,281.4
2022-12-22T03:02:50.000Z,281.46
2022-12-22T03:04:56.000Z,281.4
2022-12-22T03:06:23.000Z,281.4
2022-12-22T03:08:29.000Z,281.34
2022-12-22T03:09:56.000Z,281.4
2022-12-22T03:12:02.000Z,281.46
2022-12-22T03:13:28.000Z,281.46
2022-12-22T03:15:34.000Z,281.46
2022-12-22T03:17:01.000Z,281.4
2022-12-22T03:19:07.000Z,281.52
2022-12-22T03:20:33.000Z,281.46
2022-12-22T03:22:39.000Z,281.46
2022-12-22T03:24:06.000Z,281.46
2022-12-22T03:26:12.000Z,281.52
2022-12-22T03:29:03.000Z,281.46
2022-12-22T03:30:30.000Z,281.52
2022-12-22T03:32:36.000Z,281.52
2022-12-22T03:34:02.000Z,281.52
2022-12-22T03:36:08.000Z,281.46
2022-12-22T03:37:35.000Z,281.52
2022-12-22T03:39:41.000Z,281.65
2022-12-22T03:41:08.000Z,281.65
2022-12-22T03:43:14.000Z,281.59
2022-12-22T03:44:40.000Z,281.59
2022-12-22T03:46:46.000Z,281.65
2022-12-22T03:48:13.000Z,281.59
2022-12-22T03:50:19.000Z,281.52
2022-12-22T03:51:46.000Z,281.59
2022-12-22T03:53:52.000Z,281.52
2022-12-22T03:55:19.000Z,281.65
2022-12-22T03:57:25.000Z,281.52
2022-12-22T03:58:51.000Z,281.52
2022-12-22T04:00:57.000Z,281.59
2022-12-22T04:02:24.000Z,281.59
2022-12-22T04:04:30.000Z,281.46
2022-12-22T04:07:21.000Z,281.46
2022-12-22T04:08:48.000Z,281.46
2022-12-22T04:10:54.000Z,281.46
2022-12-22T04:12:20.000Z,281.46
2022-12-22T04:14:26.000Z,281.46
2022-12-22T04:15:59.000Z,281.4
2022-12-22T04:18:05.000Z,281.46
2022-12-22T04:19:31.000Z,281.46
2022-12-22T04:21:38.000Z,281.46
2022-12-22T04:23:04.000Z,281.46
2022-12-22T04:25:10.000Z,281.46
2022-12-22T04:26:37.000Z,281.52
2022-12-22T04:28:43.000Z,281.52
2022-12-22T04:30:10.000Z,281.59
2022-12-22T04:32:16.000Z,281.65
2022-12-22T04:33:42.000Z,281.59
2022-12-22T04:35:49.000Z,281.65
2022-12-22T04:37:15.000Z,281.77
2022-12-22T04:39:22.000Z,281.77
2022-12-22T04:40:48.000Z,281.77
2022-12-22T04:42:55.000Z,281.71
2022-12-22T04:45:46.000Z,281.65
2022-12-22T04:47:12.000Z,281.65
2022-12-22T04:49:18.000Z,281.71
2022-12-22T04:50:45.000Z,281.71
2022-12-22T04:52:51.000Z,281.71
2022-12-22T04:54:18.000Z,281.77
2022-12-22T04:56:24.000Z,281.77
2022-12-22T04:57:50.000Z,281.71
2022-12-22T04:59:56.000Z,281.77
2022-12-22T05:01:23.000Z,281.9
2022-12-22T05:03:30.000Z,281.77
2022-12-22T05:04:56.000Z,281.84
2022-12-22T05:07:02.000Z,281.9
2022-12-22T05:08:29.000Z,281.84
2022-12-22T05:10:35.000Z,281.84
2022-12-22T05:12:01.000Z,281.9
2022-12-22T05:14:08.000Z,281.84
2022-12-22T05:15:34.000Z,281.9
2022-12-22T05:17:40.000Z,281.96
2022-12-22T05:19:07.000Z,281.9
2022-12-22T05:21:13.000Z,282.02
2022-12-22T05:24:04.000Z,281.96
2022-12-22T05:25:31.000Z,282.02
2022-12-22T05:27:39.000Z,282.09
2022-12-22T05:29:06.000Z,282.09
2022-12-22T05:31:12.000Z,282.09
2022-12-22T05:32:38.000Z,282.09
2022-12-22T05:34:45.000Z,282.15
2022-12-22T05:36:11.000Z,282.21
2022-12-22T05:38:17.000Z,282.21
2022-12-22T05:39:44.000Z,282.27
2022-12-22T05:41:50.000Z,282.27
2022-12-22T05:43:16.000Z,282.27
2022-12-22T05:45:23.000Z,282.21
2022-12-22T05:46:49.000Z,282.27
2022-12-22T05:48:55.000Z,282.21
2022-12-22T05:50:22.000Z,282.34
2022-12-22T05:52:28.000Z,282.34
2022-12-22T05:53:54.000Z,282.27
2022-12-22T05:56:00.000Z,282.34
2022-12-22T05:57:27.000Z,282.4
2022-12-22T05:59:33.000Z,282.46
2022-12-22T06:02:24.000Z,282.46
2022-12-22T06:03:51.000Z,282.4
2022-12-22T06:06:04.000Z,282.46
2022-12-22T06:07:30.000Z,282.4
2022-12-22T06:09:36.000Z,282.27
2022-12-22T06:11:03.000Z,282.34
2022-12-22T06:13:09.000Z,282.34
2022-12-22T06:14:35.000Z,282.21
2022-12-22T06:16:41.000Z,282.21
2022-12-22T06:18:08.000Z,282.21
2022-12-22T06:20:14.000Z,282.21
2022-12-22T06:21:40.000Z,282.27
2022-12-22T06:23:47.000Z,282.27
2022-12-22T06:25:13.000Z,282.27
2022-12-22T06:27:23.000Z,282.21
2022-12-22T06:28:49.000Z,282.21
2022-12-22T06:30:55.000Z,282.21
2022-12-22T06:32:22.000Z,282.27
2022-12-22T06:34:28.000Z,282.27
2022-12-22T06:35:55.000Z,282.27
2022-12-22T06:38:03.000Z,282.21
2022-12-22T06:40:54.000Z,282.21
2022-12-22T06:42:20.000Z,282.21
2022-12-22T06:44:27.000Z,282.27
2022-12-22T06:45:53.000Z,282.34
2022-12-22T06:47:59.000Z,282.34
2022-12-22T06:49:26.000Z,282.34
2022-12-22T06:51:32.000Z,282.34
2022-12-22T06:52:58.000Z,282.27
2022-12-22T06:55:04.000Z,282.34
2022-12-22T06:56:31.000Z,282.34
2022-12-22T06:58:37.000Z,282.34
2022-12-22T07:00:04.000Z,282.27
2022-12-22T07:02:10.000Z,282.27
2022-12-22T07:03:37.000Z,282.27
2022-12-22T07:05:43.000Z,282.27
2022-12-22T07:07:09.000Z,282.27
2022-12-22T07:09:15.000Z,282.27
2022-12-22T07:10:42.000Z,282.27
2022-12-22T07:12:48.000Z,282.21
2022-12-22T07:14:14.000Z,282.27
2022-12-22T07:16:21.000Z,282.21
2022-12-22T07:19:12.000Z,282.21
2022-12-22T07:20:39.000Z,282.21
2022-12-22T07:22:45.000Z,282.21
2022-12-22T07:24:11.000Z,282.27
2022-12-22T07:26:18.000Z,282.27
2022-12-22T07:27:44.000Z,282.27
2022-12-22T07:29:50.000Z,282.15
2022-12-22T07:31:17.000Z,282.15
2022-12-22T07:33:23.000Z,282.21
2022-12-22T07:34:49.000Z,282.27
2022-12-22T07:36:56.000Z,282.27
2022-12-22T07:38:22.000Z,282.27
2022-12-22T07:40:28.000Z,282.34
2022-12-22T07:41:55.000Z,282.4
2022-12-22T07:44:01.000Z,282.34
2022-12-22T07:45:28.000Z,282.4
2022-12-22T07:47:34.000Z,282.46
2022-12-22T07:49:00.000Z,282.46
2022-12-22T07:51:06.000Z,282.46
2022-12-22T07:52:33.000Z,282.46
2022-12-22T07:54:39.000Z,282.52
2022-12-22T07:57:31.000Z,282.59
2022-12-22T07:58:58.000Z,282.59
2022-12-22T08:01:04.000Z,282.52
2022-12-22T08:02:30.000Z,282.52
2022-12-22T08:04:43.000Z,282.52
2022-12-22T08:06:10.000Z,282.59
2022-12-22T08:08:16.000Z,282.52
2022-12-22T08:09:42.000Z,282.52
2022-12-22T08:11:48.000Z,282.59
2022-12-22T08:13:15.000Z,282.65
2022-12-22T08:15:21.000Z,282.65
2022-12-22T08:16:48.000Z,282.65
2022-12-22T08:18:54.000Z,282.65
2022-12-22T08:20:21.000Z,282.71
2022-12-22T08:22:27.000Z,282.71
2022-12-22T08:23:53.000Z,282.65
2022-12-22T08:25:59.000Z,282.65
2022-12-22T08:27:26.000Z,282.71
2022-12-22T08:29:32.000Z,282.71
2022-12-22T08:30:59.000Z,282.71
2022-12-22T08:33:05.000Z,282.71
2022-12-22T08:35:56.000Z,282.71
2022-12-22T08:37:32.000Z,282.71
2022-12-22T08:39:38.000Z,282.71
2022-12-22T08:41:04.000Z,282.77
2022-12-22T08:43:10.000Z,282.77
2022-12-22T08:44:37.000Z,282.77
2022-12-22T08:46:43.000Z,282.71
2022-12-22T08:48:10.000Z,282.71
2022-12-22T08:50:16.000Z,282.71
2022-12-22T08:51:42.000Z,282.77
2022-12-22T08:53:49.000Z,282.77
2022-12-22T08:55:30.000Z,282.84
2022-12-22T08:57:36.000Z,282.71
2022-12-22T08:59:02.000Z,282.65
2022-12-22T09:01:09.000Z,282.71
2022-12-22T09:02:35.000Z,282.65
2022-12-22T09:04:42.000Z,282.65
2022-12-22T09:06:08.000Z,282.65
2022-12-22T09:08:14.000Z,282.59
2022-12-22T09:09:41.000Z,282.71
2022-12-22T09:11:47.000Z,282.65
2022-12-22T09:14:38.000Z,282.65
2022-12-22T09:16:05.000Z,282.59
2022-12-22T09:18:11.000Z,282.65
2022-12-22T09:19:38.000Z,282.59
2022-12-22T09:21:44.000Z,282.65
2022-12-22T09:23:10.000Z,282.71
2022-12-22T09:25:17.000Z,282.77
2022-12-22T09:26:43.000Z,282.84
2022-12-22T09:28:50.000Z,282.77
2022-12-22T09:30:16.000Z,282.77
2022-12-22T09:32:23.000Z,282.71
2022-12-22T09:33:49.000Z,282.71
2022-12-22T09:35:55.000Z,282.71
2022-12-22T09:37:22.000Z,282.77
2022-12-22T09:39:28.000Z,282.71
2022-12-22T09:40:54.000Z,282.65
2022-12-22T09:43:00.000Z,282.71
2022-12-22T09:44:27.000Z,282.71
2022-12-22T09:46:33.000Z,282.71
2022-12-22T09:48:00.000Z,282.71
2022-12-22T09:50:06.000Z,282.77
2022-12-22T09:52:57.000Z,282.71
2022-12-22T09:54:24.000Z,282.71
2022-12-22T09:56:30.000Z,282.71
2022-12-22T09:57:56.000Z,282.65
2022-12-22T10:00:02.000Z,282.65
2022-12-22T10:01:29.000Z,282.71
2022-12-22T10:03:36.000Z,282.71
2022-12-22T10:05:02.000Z,282.71
2022-12-22T10:07:08.000Z,282.84
2022-12-22T10:08:35.000Z,282.84
2022-12-22T10:10:41.000Z,282.77
2022-12-22T10:12:07.000Z,282.77
2022-12-22T10:14:14.000Z,282.84
2022-12-22T10:15:40.000Z,282.77
2022-12-22T10:17:46.000Z,282.77
2022-12-22T10:19:13.000Z,282.77
2022-12-22T10:21:19.000Z,282.77
2022-12-22T10:22:46.000Z,282.84
2022-12-22T10:24:52.000Z,282.9
2022-12-22T10:26:18.000Z,282.84
2022-12-22T10:28:35.000Z,282.84
2022-12-22T10:31:26.000Z,282.77
2022-12-22T10:32:53.000Z,282.77
2022-12-22T10:34:59.000Z,282.77
2022-12-22T10:36:26.000Z,282.77
2022-12-22T10:38:32.000Z,282.71
2022-12-22T10:39:58.000Z,282.77
2022-12-22T10:42:04.000Z,282.71
2022-12-22T10:43:31.000Z,282.71
2022-12-22T10:45:37.000Z,282.71
2022-12-22T10:47:04.000Z,282.71
2022-12-22T10:49:14.000Z,282.71
2022-12-22T10:50:41.000Z,282.71
2022-12-22T10:52:47.000Z,282.77
2022-12-22T10:54:14.000Z,282.77
2022-12-22T10:56:20.000Z,282.71
2022-12-22T10:57:46.000Z,282.77
2022-12-22T10:59:52.000Z,282.77
2022-12-22T11:01:19.000Z,282.77
2022-12-22T11:03:25.000Z,282.77
2022-12-22T11:04:52.000Z,282.84
2022-12-22T11:06:58.000Z,282.77
2022-12-22T11:09:49.000Z,282.77
2022-12-22T11:11:16.000Z,282.77
2022-12-22T11:13:22.000Z,282.77
2022-12-22T11:14:48.000Z,282.77
2022-12-22T11:16:54.000Z,282.71
2022-12-22T11:18:21.000Z,282.71
2022-12-22T11:20:27.000Z,282.65
2022-12-22T11:21:54.000Z,282.65
2022-12-22T11:24:00.000Z,282.65
2022-12-22T11:25:26.000Z,282.71
2022-12-22T11:27:32.000Z,282.71
2022-12-22T11:28:59.000Z,282.71
2022-12-22T11:31:05.000Z,282.71
2022-12-22T11:32:32.000Z,282.71
2022-12-22T11:34:38.000Z,282.71
2022-12-22T11:36:04.000Z,282.71
2022-12-22T11:38:10.000Z,282.71
2022-12-22T11:39:37.000Z,282.71
2022-12-22T11:41:43.000Z,282.77
2022-12-22T11:43:09.000Z,282.77
2022-12-22T11:45:15.000Z,282.77
2022-12-22T11:48:06.000Z,282.77
2022-12-22T11:49:33.000Z,282.77
2022-12-22T11:51:39.000Z,282.77
2022-12-22T11:53:06.000Z,282.84
2022-12-22T11:55:12.000Z,282.84
2022-12-22T11:56:38.000Z,282.77
2022-12-22T11:58:44.000Z,282.77
2022-12-22T12:00:11.000Z,282.71
2022-12-22T12:02:17.000Z,282.71
2022-12-22T12:03:44.000Z,282.71
2022-12-22T12:05:50.000Z,282.71
2022-12-22T12:07:17.000Z,282.71
2022-12-22T12:09:29.000Z,282.65
2022-12-22T12:10:56.000Z,282.71
2022-12-22T12:13:02.000Z,282.71
2022-12-22T12:14:28.000Z,282.71
2022-12-22T12:16:35.000Z,282.71
2022-12-22T12:18:02.000Z,282.71
2022-12-22T12:20:08.000Z,282.77
2022-12-22T12:21:34.000Z,282.77
2022-12-22T12:23:40.000Z,282.77
2022-12-22T12:26:32.000Z,282.84
2022-12-22T12:27:58.000Z,282.84
2022-12-22T12:30:04.000Z,282.84
2022-12-22T12:32:02.000Z,282.9
2022-12-22T12:34:08.000Z,282.9
2022-12-22T12:35:34.000Z,282.9
2022-12-22T12:37:41.000Z,282.9
2022-12-22T12:39:07.000Z,282.9
2022-12-22T12:41:14.000Z,282.9
2022-12-22T12:42:40.000Z,282.96
2022-12-22T12:44:46.000Z,282.9
2022-12-22T12:46:13.000Z,282.9
2022-12-22T12:48:19.000Z,282.9
2022-12-22T12:49:46.000Z,282.9
2022-12-22T12:51:52.000Z,282.84
2022-12-22T12:53:18.000Z,282.84
2022-12-22T12:55:24.000Z,282.77
2022-12-22T12:56:57.000Z,282.77
2022-12-22T12:59:03.000Z,282.77
2022-12-22T13:00:29.000Z,282.84
2022-12-22T13:02:36.000Z,282.84
2022-12-22T13:05:27.000Z,282.77
2022-12-22T13:06:54.000Z,282.77
2022-12-22T13:09:00.000Z,282.77
2022-12-22T13:11:13.000Z,282.77
2022-12-22T13:13:56.000Z,282.71
2022-12-22T13:15:23.000Z,282.77
2022-12-22T13:17:29.000Z,282.71
2022-12-22T13:18:55.000Z,282.77
2022-12-22T13:21:02.000Z,282.71
2022-12-22T13:23:15.000Z,282.71
2022-12-22T13:25:21.000Z,282.71
2022-12-22T13:26:47.000Z,282.65
2022-12-22T13:28:53.000Z,282.65
2022-12-22T13:30:20.000Z,282.65
2022-12-22T13:32:26.000Z,282.59
2022-12-22T13:33:53.000Z,282.65
2022-12-22T13:35:59.000Z,282.65
2022-12-22T13:37:25.000Z,282.65
2022-12-22T13:39:31.000Z,282.59
2022-12-22T13:40:58.000Z,282.65
2022-12-22T13:43:04.000Z,282.59
2022-12-22T13:45:55.000Z,282.59
2022-12-22T13:47:22.000Z,282.59
2022-12-22T13:49:28.000Z,282.59
2022-12-22T13:51:32.000Z,282.59
2022-12-22T13:53:38.000Z,282.59
2022-12-22T13:55:33.000Z,282.59
2022-12-22T13:57:39.000Z,282.59
2022-12-22T13:59:05.000Z,282.65
2022-12-22T14:01:12.000Z,282.65
2022-12-22T14:02:38.000Z,282.65
2022-12-22T14:04:45.000Z,282.71
2022-12-22T14:06:16.000Z,282.65
2022-12-22T14:08:23.000Z,282.59
2022-12-22T14:09:49.000Z,282.59
2022-12-22T14:11:55.000Z,282.52
2022-12-22T14:13:22.000Z,282.59
2022-12-22T14:15:28.000Z,282.59
2022-12-22T14:16:54.000Z,282.52
2022-12-22T14:19:01.000Z,282.52
2022-12-22T14:20:27.000Z,282.52
2022-12-22T14:22:34.000Z,282.52
2022-12-22T14:25:25.000Z,282.52
2022-12-22T14:26:51.000Z,282.52
2022-12-22T14:28:58.000Z,282.46
2022-12-22T14:30:24.000Z,282.46
2022-12-22T14:32:30.000Z,282.46
2022-12-22T14:33:57.000Z,282.46
2022-12-22T14:36:03.000Z,282.46
2022-12-22T14:37:29.000Z,282.52
2022-12-22T14:39:37.000Z,282.52
2022-12-22T14:41:03.000Z,282.46
2022-12-22T14:43:10.000Z,282.4
2022-12-22T14:44:36.000Z,282.34
2022-12-22T14:46:42.000Z,282.27
2022-12-22T14:48:09.000Z,282.21
2022-12-22T14:50:15.000Z,282.21
2022-12-22T14:51:41.000Z,282.15
2022-12-22T14:53:48.000Z,282.15
2022-12-22T14:55:14.000Z,282.15
2022-12-22T14:57:20.000Z,282.15
2022-12-22T14:58:47.000Z,282.09
2022-12-22T15:00:53.000Z,282.02
2022-12-22T15:03:44.000Z,281.96
2022-12-22T15:05:11.000Z,281.96
2022-12-22T15:07:17.000Z,281.9
2022-12-22T15:09:28.000Z,281.84
2022-12-22T15:12:17.000Z,281.84
2022-12-22T15:13:44.000Z,281.77
2022-12-22T15:15:50.000Z,281.71
2022-12-22T15:17:16.000Z,281.71
2022-12-22T15:19:23.000Z,281.71
2022-12-22T15:20:49.000Z,281.71
2022-12-22T15:22:55.000Z,281.59
2022-12-22T15:24:22.000Z,281.65
2022-12-22T15:26:28.000Z,281.46
2022-12-22T15:28:02.000Z,281.4
2022-12-22T15:30:08.000Z,281.34
2022-12-22T15:31:34.000Z,281.27
2022-12-22T15:33:40.000Z,281.27
2022-12-22T15:35:07.000Z,281.21
2022-12-22T15:37:13.000Z,281.15
2022-12-22T15:38:40.000Z,281.02
2022-12-22T15:40:46.000Z,280.96
2022-12-22T15:43:37.000Z,280.9
2022-12-22T15:45:23.000Z,280.9
2022-12-22T15:47:29.000Z,280.84
2022-12-22T15:48:55.000Z,280.9
2022-12-22T15:51:02.000Z,280.84
2022-12-22T15:52:28.000Z,280.84
2022-12-22T15:54:34.000Z,280.77
2022-12-22T15:56:01.000Z,280.65
2022-12-22T15:58:07.000Z,280.71
2022-12-22T15:59:33.000Z,280.71
2022-12-22T16:01:40.000Z,280.77
2022-12-22T16:03:06.000Z,280.65
2022-12-22T16:05:13.000Z,280.65
2022-12-22T16:06:39.000Z,280.65
2022-12-22T16:08:45.000Z,280.65
2022-12-22T16:10:12.000Z,280.65
2022-12-22T16:12:18.000Z,280.71
2022-12-22T16:13:44.000Z,280.65
2022-12-22T16:15:50.000Z,280.65
2022-12-22T16:17:17.000Z,280.71
2022-12-22T16:19:23.000Z,280.59
2022-12-22T16:22:14.000Z,280.65
2022-12-22T16:23:40.000Z,280.59
2022-12-22T16:25:47.000Z,280.52
2022-12-22T16:27:13.000Z,280.65
2022-12-22T16:29:19.000Z,280.59
2022-12-22T16:30:46.000Z,280.65
2022-12-22T16:32:52.000Z,280.65
2022-12-22T16:34:18.000Z,280.59
2022-12-22T16:36:24.000Z,280.65
2022-12-22T16:37:51.000Z,280.65
2022-12-22T16:39:57.000Z,280.65
2022-12-22T16:41:24.000Z,280.65
2022-12-22T16:43:30.000Z,280.65
2022-12-22T16:45:12.000Z,280.59
2022-12-22T16:47:18.000Z,280.59
2022-12-22T16:48:45.000Z,280.59
2022-12-22T16:50:51.000Z,280.52
2022-12-22T16:52:18.000Z,280.46
2022-12-22T16:54:24.000Z,280.52
2022-12-22T16:55:50.000Z,280.46
2022-12-22T16:57:57.000Z,280.52
2022-12-22T17:00:48.000Z,280.46
2022-12-22T17:02:14.000Z,280.4
2022-12-22T17:04:21.000Z,280.4
2022-12-22T17:05:47.000Z,280.34
2022-12-22T17:07:53.000Z,280.34
2022-12-22T17:09:20.000Z,280.34
2022-12-22T17:11:26.000Z,280.4
2022-12-22T17:12:53.000Z,280.46
2022-12-22T17:14:59.000Z,280.46
2022-12-22T17:16:25.000Z,280.52
2022-12-22T17:18:31.000Z,280.52
2022-12-22T17:19:58.000Z,280.52
2022-12-22T17:22:04.000Z,280.4
2022-12-22T17:23:31.000Z,280.4
2022-12-22T17:25:37.000Z,280.34
2022-12-22T17:27:03.000Z,280.34
2022-12-22T17:29:09.000Z,280.4
2022-12-22T17:30:36.000Z,280.4
2022-12-22T17:32:42.000Z,280.4
2022-12-22T17:34:09.000Z,280.4
2022-12-22T17:36:15.000Z,280.46
2022-12-22T17:39:07.000Z,280.46
2022-12-22T17:40:34.000Z,280.4
2022-12-22T17:42:40.000Z,280.4
2022-12-22T17:44:07.000Z,280.4
2022-12-22T17:46:13.000Z,280.34
2022-12-22T17:47:40.000Z,280.34
2022-12-22T17:49:47.000Z,280.34
2022-12-22T17:51:13.000Z,280.34
2022-12-22T17:53:20.000Z,280.59
2022-12-22T17:54:46.000Z,280.59
2022-12-22T17:56:52.000Z,280.65
2022-12-22T17:58:19.000Z,280.59
2022-12-22T18:00:25.000Z,280.59
2022-12-22T18:01:51.000Z,280.65
2022-12-22T18:03:58.000Z,280.65
2022-12-22T18:05:24.000Z,280.65
2022-12-22T18:07:30.000Z,280.71
2022-12-22T18:09:08.000Z,280.71
2022-12-22T18:11:14.000Z,280.77
2022-12-22T18:12:40.000Z,280.84
2022-12-22T18:14:46.000Z,280.84
2022-12-22T18:17:37.000Z,280.84
2022-12-22T18:19:04.000Z,280.9
2022-12-22T18:21:10.000Z,280.9
2022-12-22T18:22:37.000Z,280.9
2022-12-22T18:24:43.000Z,280.84
2022-12-22T18:26:09.000Z,280.9
2022-12-22T18:28:15.000Z,280.84
2022-12-22T18:29:42.000Z,280.84
2022-12-22T18:31:48.000Z,280.84
2022-12-22T18:33:15.000Z,280.84
2022-12-22T18:35:21.000Z,280.96
2022-12-22T18:36:47.000Z,280.96
2022-12-22T18:38:53.000Z,280.96
2022-12-22T18:40:20.000Z,280.96
2022-12-22T18:42:32.000Z,280.9
2022-12-22T18:43:59.000Z,280.9
2022-12-22T18:46:05.000Z,280.9
2022-12-22T18:47:31.000Z,280.9
2022-12-22T18:49:37.000Z,280.84
2022-12-22T18:51:04.000Z,280.84
2022-12-22T18:53:10.000Z,280.84
2022-12-22T18:56:02.000Z,280.9
2022-12-22T18:57:28.000Z,280.9
2022-12-22T18:59:34.000Z,280.9
2022-12-22T19:01:01.000Z,280.9
2022-12-22T19:03:07.000Z,280.84
2022-12-22T19:04:34.000Z,280.84
2022-12-22T19:06:40.000Z,280.84
2022-12-22T19:08:06.000Z,280.84
2022-12-22T19:10:12.000Z,280.84
2022-12-22T19:11:39.000Z,280.84
2022-12-22T19:13:45.000Z,280.84
2022-12-22T19:15:12.000Z,280.84
2022-12-22T19:17:18.000Z,280.84
2022-12-22T19:18:44.000Z,280.84
2022-12-22T19:20:50.000Z,280.84
2022-12-22T19:22:17.000Z,280.84
2022-12-22T19:24:23.000Z,280.84
2022-12-22T19:25:50.000Z,280.84
2022-12-22T19:27:56.000Z,280.84
2022-12-22T19:29:22.000Z,280.84
2022-12-22T19:31:28.000Z,280.77
2022-12-22T19:34:20.000Z,280.77
2022-12-22T19:35:46.000Z,280.84
2022-12-22T19:37:53.000Z,280.84
2022-12-22T19:39:19.000Z,280.84
2022-12-22T19:41:25.000Z,280.84
2022-12-22T19:42:52.000Z,280.9
2022-12-22T19:44:58.000Z,280.84
2022-12-22T19:46:31.000Z,280.84
2022-12-22T19:48:37.000Z,280.9
2022-12-22T19:50:04.000Z,280.9
2022-12-22T19:52:10.000Z,280.84
2022-12-22T19:53:36.000Z,280.9
2022-12-22T19:55:43.000Z,280.9
2022-12-22T19:57:09.000Z,280.9
2022-12-22T19:59:15.000Z,280.9
2022-12-22T20:00:50.000Z,280.9
2022-12-22T20:02:56.000Z,280.9
2022-12-22T20:04:23.000Z,280.9
2022-12-22T20:06:29.000Z,280.9
2022-12-22T20:07:56.000Z,280.96
2022-12-22T20:10:02.000Z,280.96
2022-12-22T20:12:54.000Z,280.96
2022-12-22T20:14:20.000Z,280.96
2022-12-22T20:16:26.000Z,280.96
2022-12-22T20:17:53.000Z,281.02
2022-12-22T20:19:59.000Z,281.02
2022-12-22T20:21:26.000Z,281.09
2022-12-22T20:23:32.000Z,281.02
2022-12-22T20:24:58.000Z,281.09
2022-12-22T20:27:04.000Z,281.09
2022-12-22T20:28:31.000Z,281.09
2022-12-22T20:30:37.000Z,281.09
2022-12-22T20:32:03.000Z,281.09
2022-12-22T20:34:10.000Z,281.09
2022-12-22T20:35:36.000Z,281.09
2022-12-22T20:37:42.000Z,281.21
2022-12-22T20:39:09.000Z,281.21
2022-12-22T20:41:15.000Z,281.15
2022-12-22T20:42:42.000Z,281.21
2022-12-22T20:44:48.000Z,281.21
2022-12-22T20:46:28.000Z,281.21
2022-12-22T20:48:35.000Z,281.21
2022-12-22T20:51:26.000Z,281.21
2022-12-22T20:52:52.000Z,281.21
2022-12-22T20:54:59.000Z,281.15
2022-12-22T20:56:25.000Z,281.15
2022-12-22T20:58:31.000Z,281.15
2022-12-22T20:59:58.000Z,281.15
2022-12-22T21:02:04.000Z,281.21
2022-12-22T21:03:31.000Z,281.21
2022-12-22T21:05:37.000Z,281.27
2022-12-22T21:07:04.000Z,281.27
2022-12-22T21:09:10.000Z,281.27
2022-12-22T21:10:36.000Z,281.27
2022-12-22T21:12:42.000Z,281.34
2022-12-22T21:14:09.000Z,281.34
2022-12-22T21:16:15.000Z,281.46
2022-12-22T21:17:42.000Z,281.46
2022-12-22T21:19:50.000Z,281.46
2022-12-22T21:21:16.000Z,281.4
2022-12-22T21:23:23.000Z,281.52
2022-12-22T21:24:49.000Z,281.52
2022-12-22T21:26:55.000Z,281.59
2022-12-22T21:29:46.000Z,281.46
2022-12-22T21:31:13.000Z,281.52
2022-12-22T21:33:19.000Z,281.46
2022-12-22T21:34:46.000Z,281.52
2022-12-22T21:36:52.000Z,281.52
2022-12-22T21:38:18.000Z,281.52
2022-12-22T21:40:25.000Z,281.52
2022-12-22T21:41:51.000Z,281.52
2022-12-22T21:43:57.000Z,281.59
2022-12-22T21:45:24.000Z,281.65
2022-12-22T21:47:30.000Z,281.59
2022-12-22T21:48:56.000Z,281.59
2022-12-22T21:51:02.000Z,281.65
2022-12-22T21:52:29.000Z,281.65
2022-12-22T21:54:35.000Z,281.59
2022-12-22T21:56:02.000Z,281.59
2022-12-22T21:58:08.000Z,281.52
2022-12-22T21:59:34.000Z,281.52
2022-12-22T22:01:40.000Z,281.52
2022-12-22T22:03:07.000Z,281.52
2022-12-22T22:05:14.000Z,281.52
2022-12-22T22:08:05.000Z,281.52
2022-12-22T22:09:32.000Z,281.52
2022-12-22T22:11:38.000Z,281.46
2022-12-22T22:13:04.000Z,281.52
2022-12-22T22:15:10.000Z,281.46
2022-12-22T22:16:37.000Z,281.52
2022-12-22T22:18:43.000Z,281.46
2022-12-22T22:20:09.000Z,281.52
2022-12-22T22:22:15.000Z,281.46
2022-12-22T22:23:42.000Z,281.46
2022-12-22T22:25:48.000Z,281.46
2022-12-22T22:27:15.000Z,281.46
2022-12-22T22:29:21.000Z,281.46
2022-12-22T22:30:47.000Z,281.46
2022-12-22T22:32:54.000Z,281.46
2022-12-22T22:34:20.000Z,281.52
2022-12-22T22:36:26.000Z,281.59
2022-12-22T22:37:53.000Z,281.59
2022-12-22T22:39:59.000Z,281.59
2022-12-22T22:41:26.000Z,281.59
2022-12-22T22:43:32.000Z,281.65
2022-12-22T22:46:23.000Z,281.65
2022-12-22T22:47:49.000Z,281.59
2022-12-22T22:49:56.000Z,281.52
2022-12-22T22:51:22.000Z,281.52
2022-12-22T22:53:28.000Z,281.52
2022-12-22T22:54:55.000Z,281.52
2022-12-22T22:57:01.000Z,281.52